Green Lake, Canada
Current Conditions -  °F | °C
As of 6:00 PM on Tuesday 21 Oct 2014 (Local Time) from CWHN Reporting Station
Clear Clear  
Wind Chill: 52°   Ceiling: Unl
Heat Index: 52°   Visibility: 9mi
Dew Point: 37°   Wind: 5mph
Humidity: 58%   Direction: 290°WNW
Pressure: 29.6"   Gusts: NA
Location:  54.27°N, 107.78°W
Report Text: CWHN 220000Z AUTO 29004KT 9SM CLR 11/03 A2960 RMK SLP039
Loading
Personal Weather Stations






























Interactive Weather Map
Tropical Storm Tracking
New forecast layout! Learn more

10-Day Weather Forecast

Advertisements
Track Severe Weather on mobile